Time;durP1;ratioP1;P1;durP2;ratioP2;P2;SDS_P1;SDS_P2;PMS_P1;PMS_P2;Temp;Humidity;BMP_temperature;BMP_pressure;BME280_temperature;BME280_humidity;BME280_pressure;Samples;Min_cycle;Max_cycle;Signal;HPM_P1;HPM_P2
2023/10/29 00:01:35;;;;;;;0.70;0.70;;;;;;;18.86;56.96;97303.38;107448;1276;58675;-41
2023/10/29 00:04:02;;;;;;;0.60;0.60;;;;;;;18.87;56.94;97304.57;103929;1280;61285;-43
2023/10/29 00:06:29;;;;;;;0.70;0.70;;;;;;;18.88;56.95;97304.96;104053;1277;61302;-42
2023/10/29 00:08:56;;;;;;;0.70;0.70;;;;;;;18.87;56.89;97301.70;104023;1280;75123;-42
2023/10/29 00:11:23;;;;;;;0.70;0.70;;;;;;;18.88;56.84;97308.30;103894;1280;65894;-42
2023/10/29 00:13:49;;;;;;;1.00;0.80;;;;;;;18.88;56.97;97310.25;103801;1277;73466;-41
2023/10/29 00:16:17;;;;;;;0.60;0.60;;;;;;;18.88;56.80;97315.59;103756;1280;61304;-41
2023/10/29 00:18:44;;;;;;;0.70;0.70;;;;;;;18.88;56.84;97313.25;103785;1277;61331;-41
2023/10/29 00:21:11;;;;;;;0.60;0.60;;;;;;;18.87;56.84;97314.86;103744;1280;74326;-42
2023/10/29 00:23:37;;;;;;;0.80;0.80;;;;;;;18.87;56.95;97319.21;103754;1280;65704;-42
2023/10/29 00:26:04;;;;;;;0.90;0.80;;;;;;;18.87;56.75;97327.42;103845;1280;71544;-42
2023/10/29 00:28:30;;;;;;;0.80;0.80;;;;;;;18.86;56.84;97323.54;103769;1280;61280;-42
2023/10/29 00:30:57;;;;;;;0.90;0.70;;;;;;;18.86;56.82;97327.33;103785;1277;61355;-42
2023/10/29 00:33:24;;;;;;;1.10;0.60;;;;;;;18.86;56.82;97328.34;103763;1278;74472;-42
2023/10/29 00:35:53;;;;;;;0.80;0.80;;;;;;;18.85;56.82;97328.33;103856;1280;65585;-41
2023/10/29 00:38:21;;;;;;;0.70;0.70;;;;;;;18.84;56.83;97324.66;103764;1276;72627;-42
2023/10/29 00:40:47;;;;;;;0.70;0.70;;;;;;;18.85;56.86;97330.95;103727;1280;61272;-41
2023/10/29 00:43:15;;;;;;;0.60;0.60;;;;;;;18.85;56.80;97332.41;103775;1277;61330;-42
2023/10/29 00:45:42;;;;;;;0.50;0.50;;;;;;;18.84;56.78;97330.70;103892;1278;74654;-42
2023/10/29 00:48:10;;;;;;;0.70;0.70;;;;;;;18.84;56.81;97334.42;103818;1280;65705;-42
2023/10/29 00:50:37;;;;;;;1.00;0.70;;;;;;;18.84;56.93;97330.70;103956;1277;72964;-43
2023/10/29 00:53:04;;;;;;;0.70;0.70;;;;;;;18.84;56.90;97338.38;103768;1280;61380;-43
2023/10/29 00:55:31;;;;;;;0.70;0.60;;;;;;;18.83;56.87;97336.66;104000;1278;61366;-43
2023/10/29 00:57:57;;;;;;;0.70;0.70;;;;;;;18.83;56.84;97343.80;103835;1277;74714;-41
2023/10/29 01:00:24;;;;;;;0.90;0.60;;;;;;;18.83;56.80;97344.41;103650;1283;66068;-43
2023/10/29 01:02:51;;;;;;;0.70;0.70;;;;;;;18.82;56.80;97345.09;103933;1278;72621;-43
2023/10/29 01:05:18;;;;;;;0.70;0.70;;;;;;;18.82;56.83;97349.48;103899;1280;61309;-43
2023/10/29 01:07:45;;;;;;;0.80;0.70;;;;;;;18.82;56.84;97349.95;103888;1278;61382;-43
2023/10/29 01:10:12;;;;;;;2.00;0.60;;;;;;;18.82;56.79;97350.27;103846;1279;74653;-43
2023/10/29 01:12:38;;;;;;;0.70;0.70;;;;;;;18.81;56.85;97353.30;103836;1280;66169;-42
2023/10/29 01:15:06;;;;;;;0.60;0.60;;;;;;;18.82;56.74;97351.20;103729;1277;73032;-43
2023/10/29 01:17:32;;;;;;;0.60;0.60;;;;;;;18.81;56.79;97347.64;103910;1280;61177;-43
2023/10/29 01:19:59;;;;;;;0.60;0.60;;;;;;;18.81;56.84;97344.60;103907;1277;61413;-43
2023/10/29 01:22:26;;;;;;;1.00;0.90;;;;;;;18.81;56.78;97338.64;104058;1280;74671;-43
2023/10/29 01:24:53;;;;;;;0.90;0.60;;;;;;;18.81;56.78;97336.30;103999;1280;66232;-43
2023/10/29 01:27:21;;;;;;;0.60;0.60;;;;;;;18.81;56.76;97336.84;103820;1277;72662;-42
2023/10/29 01:29:48;;;;;;;0.90;0.70;;;;;;;18.80;56.76;97337.62;103761;1280;61291;-42
2023/10/29 01:32:16;;;;;;;0.80;0.70;;;;;;;18.80;56.85;97337.30;103960;1276;61354;-43
2023/10/29 01:34:42;;;;;;;0.60;0.60;;;;;;;18.80;56.73;97334.05;104002;1280;74643;-42
2023/10/29 01:37:09;;;;;;;1.00;0.70;;;;;;;18.79;56.83;97331.63;103994;1281;65619;-43
2023/10/29 01:39:35;;;;;;;0.70;0.60;;;;;;;18.79;56.82;97330.46;103963;1280;72504;-43
2023/10/29 01:42:02;;;;;;;0.70;0.60;;;;;;;18.79;56.82;97331.79;103931;1280;61215;-41
2023/10/29 01:44:29;;;;;;;0.70;0.60;;;;;;;18.79;56.85;97330.54;103741;1278;61386;-43
2023/10/29 01:46:56;;;;;;;0.80;0.60;;;;;;;18.79;56.81;97331.23;103764;1278;74621;-43
2023/10/29 01:49:22;;;;;;;0.80;0.80;;;;;;;18.79;56.79;97326.89;103784;1280;65790;-42
2023/10/29 01:51:49;;;;;;;0.70;0.70;;;;;;;18.79;56.80;97329.37;103750;1280;72511;-42
2023/10/29 01:54:16;;;;;;;0.50;0.50;;;;;;;18.79;56.79;97327.36;103763;1280;61310;-42
2023/10/29 01:56:43;;;;;;;0.90;0.70;;;;;;;18.79;56.79;97331.94;103773;1277;61273;-42
2023/10/29 01:59:13;;;;;;;0.50;0.50;;;;;;;18.78;56.76;97332.30;103842;1283;74814;-42
2023/10/29 02:01:40;;;;;;;0.80;0.70;;;;;;;18.79;56.81;97339.61;104026;1280;65349;-42
2023/10/29 02:04:10;;;;;;;0.80;0.80;;;;;;;18.79;56.79;97341.48;103919;1277;72594;-42
2023/10/29 02:06:40;;;;;;;0.70;0.70;;;;;;;18.78;56.81;97344.47;104032;1280;61288;-42
2023/10/29 02:09:12;;;;;;;0.90;0.70;;;;;;;18.78;56.79;97358.26;104006;1276;61273;-42
2023/10/29 02:11:40;;;;;;;0.70;0.60;;;;;;;18.78;56.78;97359.58;103824;1277;74613;-41
2023/10/29 02:14:07;;;;;;;0.50;0.50;;;;;;;18.77;56.78;97352.27;103744;1280;66082;-42
2023/10/29 02:16:33;;;;;;;0.70;0.70;;;;;;;18.78;56.80;97352.66;103668;1283;73127;-41
2023/10/29 02:19:00;;;;;;;0.80;0.70;;;;;;;18.78;56.75;97357.63;103584;1282;61366;-41
2023/10/29 02:21:27;;;;;;;0.80;0.70;;;;;;;18.78;56.76;97364.07;103759;1278;61470;-41
2023/10/29 02:23:54;;;;;;;0.60;0.60;;;;;;;18.77;56.80;97368.71;103753;1280;74679;-42
2023/10/29 02:26:22;;;;;;;0.60;0.60;;;;;;;18.77;56.72;97377.08;103742;1278;65747;-42
2023/10/29 02:28:49;;;;;;;0.90;0.70;;;;;;;18.77;56.74;97379.09;103743;1276;72486;-42
2023/10/29 02:31:19;;;;;;;0.60;0.60;;;;;;;18.77;56.79;97384.67;103719;1283;61381;-42
2023/10/29 02:33:46;;;;;;;0.70;0.70;;;;;;;18.77;56.72;97388.70;104408;1276;61381;-43
2023/10/29 02:36:13;;;;;;;0.60;0.60;;;;;;;18.77;56.72;97390.48;107409;1276;73312;-43
2023/10/29 02:38:43;;;;;;;0.80;0.60;;;;;;;18.77;56.81;97391.73;107334;1276;64956;-43
2023/10/29 02:41:12;;;;;;;0.50;0.50;;;;;;;18.78;56.81;97394.30;106093;1282;71939;-43
2023/10/29 02:43:40;;;;;;;0.70;0.50;;;;;;;18.78;56.69;97395.41;103780;1280;61235;-42
2023/10/29 02:46:06;;;;;;;0.60;0.60;;;;;;;18.79;56.72;97395.73;104038;1276;61369;-42
2023/10/29 02:48:33;;;;;;;0.60;0.60;;;;;;;18.79;56.67;97397.98;103971;1280;74553;-42
2023/10/29 02:51:00;;;;;;;0.80;0.60;;;;;;;18.80;56.61;97406.67;103796;1280;66111;-42
2023/10/29 02:53:28;;;;;;;0.80;0.50;;;;;;;18.79;56.65;97407.28;103845;1280;72677;-41
2023/10/29 02:55:59;;;;;;;1.10;0.80;;;;;;;18.79;56.64;97408.05;103941;1280;61294;-43
2023/10/29 02:58:26;;;;;;;0.70;0.70;;;;;;;18.79;56.65;97408.59;103756;1277;61437;-41
2023/10/29 03:00:53;;;;;;;0.80;0.70;;;;;;;18.79;56.62;97423.16;103893;1278;74470;-41
2023/10/29 03:03:20;;;;;;;0.70;0.70;;;;;;;18.78;56.53;97420.43;103999;1282;66108;-41
2023/10/29 03:05:47;;;;;;;0.50;0.50;;;;;;;18.78;56.65;97419.79;103847;1278;72543;-41
2023/10/29 03:08:23;;;;;;;0.80;0.70;;;;;;;18.77;56.61;97422.42;103750;1280;61244;-41
2023/10/29 03:10:50;;;;;;;0.60;0.60;;;;;;;18.77;56.60;97424.36;103723;1277;61380;-41
2023/10/29 03:13:17;;;;;;;1.00;0.70;;;;;;;18.77;56.59;97423.81;103713;1283;74331;-41
2023/10/29 03:15:44;;;;;;;1.10;0.70;;;;;;;18.76;56.64;97420.94;103872;1280;66326;-41
2023/10/29 03:18:11;;;;;;;0.70;0.70;;;;;;;18.75;56.63;97424.16;103743;1278;73144;-41
2023/10/29 03:20:39;;;;;;;1.10;0.60;;;;;;;18.76;56.69;97432.24;104012;1280;61252;-41
2023/10/29 03:23:06;;;;;;;1.00;0.70;;;;;;;18.76;56.59;97430.54;103839;1277;61332;-41
2023/10/29 03:25:33;;;;;;;0.70;0.70;;;;;;;18.76;56.60;97425.72;104097;1278;74629;-42
2023/10/29 03:28:00;;;;;;;0.50;0.50;;;;;;;18.75;56.58;97423.08;103690;1280;66829;-42
2023/10/29 03:30:27;;;;;;;1.50;0.70;;;;;;;18.75;56.60;97431.91;104146;1277;72471;-41
2023/10/29 03:32:53;;;;;;;0.70;0.60;;;;;;;18.75;56.68;97431.83;103691;1282;61241;-42
2023/10/29 03:35:20;;;;;;;0.60;0.60;;;;;;;18.75;56.57;97431.67;103706;1277;61282;-43
2023/10/29 03:37:47;;;;;;;0.60;0.60;;;;;;;18.75;56.51;97432.76;103737;1277;75020;-42
2023/10/29 03:40:14;;;;;;;0.50;0.50;;;;;;;18.75;56.58;97437.73;103738;1278;66164;-43
2023/10/29 03:42:40;;;;;;;0.90;0.70;;;;;;;18.75;56.58;97437.88;103760;1278;72481;-43
2023/10/29 03:45:08;;;;;;;0.60;0.60;;;;;;;18.74;56.62;97440.50;103676;1283;61220;-43
2023/10/29 03:47:35;;;;;;;0.60;0.60;;;;;;;18.74;56.52;97447.56;103809;1277;61269;-42
2023/10/29 03:50:02;;;;;;;0.60;0.60;;;;;;;18.74;56.64;97453.66;103756;1280;74356;-42
2023/10/29 03:52:29;;;;;;;0.50;0.50;;;;;;;18.74;56.58;97455.30;103821;1290;65244;-43
2023/10/29 03:54:55;;;;;;;0.50;0.50;;;;;;;18.74;56.60;97456.15;103736;1279;73086;-43
2023/10/29 03:57:22;;;;;;;0.60;0.60;;;;;;;18.73;56.57;97456.45;103856;1280;61375;-43
2023/10/29 03:59:48;;;;;;;0.60;0.60;;;;;;;18.74;56.61;97457.68;103921;1278;61338;-43
2023/10/29 04:02:15;;;;;;;0.70;0.70;;;;;;;18.73;56.55;97463.89;103915;1277;74602;-42
2023/10/29 04:04:42;;;;;;;0.80;0.70;;;;;;;18.73;56.56;97464.65;103715;1280;66644;-43
2023/10/29 04:07:16;;;;;;;0.60;0.60;;;;;;;18.74;56.64;97466.53;103684;1280;72645;-42
2023/10/29 04:09:43;;;;;;;1.00;0.80;;;;;;;18.73;56.58;97465.27;103718;1280;61281;-43
2023/10/29 04:12:10;;;;;;;0.70;0.60;;;;;;;18.73;56.56;97467.91;103841;1283;61308;-42
2023/10/29 04:14:39;;;;;;;0.50;0.50;;;;;;;18.73;56.54;97466.59;104027;1279;74647;-43
2023/10/29 04:17:07;;;;;;;0.80;0.50;;;;;;;18.73;56.60;97467.66;103911;1280;66304;-44
2023/10/29 04:19:34;;;;;;;0.60;0.60;;;;;;;18.72;56.56;97477.04;103916;1278;72389;-44
2023/10/29 04:22:01;;;;;;;0.60;0.60;;;;;;;18.72;56.60;97477.49;103814;1280;61726;-43
2023/10/29 04:24:28;;;;;;;0.70;0.60;;;;;;;18.72;56.55;97477.05;103780;1280;61733;-43
2023/10/29 04:26:55;;;;;;;0.80;0.80;;;;;;;18.71;56.55;97479.04;103953;1282;74514;-43
2023/10/29 04:29:22;;;;;;;0.60;0.60;;;;;;;18.71;56.57;97477.80;104017;1280;66270;-43
2023/10/29 04:31:48;;;;;;;0.60;0.60;;;;;;;18.70;56.52;97474.90;103884;1278;72445;-41
2023/10/29 04:34:15;;;;;;;0.70;0.70;;;;;;;18.70;56.57;97482.73;103674;1280;61212;-41
2023/10/29 04:36:42;;;;;;;0.60;0.60;;;;;;;18.70;56.56;97480.56;103772;1278;61538;-41
2023/10/29 04:39:09;;;;;;;1.00;0.60;;;;;;;18.70;56.54;97483.65;103755;1283;75164;-42
2023/10/29 04:41:35;;;;;;;1.30;0.50;;;;;;;18.69;56.53;97485.58;103908;1280;65970;-42
2023/10/29 04:44:02;;;;;;;0.80;0.70;;;;;;;18.70;56.52;97485.82;103967;1280;72645;-42
2023/10/29 04:46:29;;;;;;;0.80;0.60;;;;;;;18.70;56.62;97488.61;104046;1280;61299;-42
2023/10/29 04:48:56;;;;;;;0.70;0.60;;;;;;;18.70;56.49;97482.25;103844;1277;61354;-42
2023/10/29 04:51:23;;;;;;;0.50;0.50;;;;;;;18.70;56.60;97480.31;103834;1280;74743;-42
2023/10/29 04:53:49;;;;;;;0.60;0.60;;;;;;;18.70;56.50;97481.24;103874;1280;66231;-42
2023/10/29 04:56:16;;;;;;;0.80;0.70;;;;;;;18.69;56.49;97473.34;103715;1280;72428;-41
2023/10/29 04:58:43;;;;;;;1.00;0.70;;;;;;;18.69;56.50;97478.30;103856;1281;61295;-41
2023/10/29 05:01:09;;;;;;;0.70;0.70;;;;;;;18.69;56.57;97479.52;103874;1278;61360;-42
2023/10/29 05:03:36;;;;;;;1.00;0.80;;;;;;;18.69;56.54;97486.20;103881;1278;74644;-42
2023/10/29 05:06:04;;;;;;;0.70;0.50;;;;;;;18.68;56.49;97489.49;103988;1280;64102;-42
2023/10/29 05:08:31;;;;;;;0.70;0.60;;;;;;;18.68;56.52;97490.42;104049;1276;72811;-42
2023/10/29 05:10:57;;;;;;;0.60;0.60;;;;;;;18.68;56.53;97491.36;103752;1281;61281;-44
2023/10/29 05:13:24;;;;;;;0.90;0.70;;;;;;;18.68;56.59;97490.49;104506;1280;61375;-41
2023/10/29 05:15:51;;;;;;;0.90;0.60;;;;;;;18.68;56.44;97496.17;107295;1276;74572;-42
2023/10/29 05:18:17;;;;;;;0.60;0.60;;;;;;;18.68;56.51;97501.83;107498;1276;64924;-42
2023/10/29 05:20:46;;;;;;;0.40;0.40;;;;;;;18.69;56.57;97507.65;104988;1280;71237;-42
2023/10/29 05:23:14;;;;;;;0.70;0.70;;;;;;;18.70;56.53;97509.08;103998;1280;61294;-42
2023/10/29 05:25:41;;;;;;;0.60;0.60;;;;;;;18.70;56.47;97513.65;104021;1277;61493;-42
2023/10/29 05:28:08;;;;;;;0.80;0.80;;;;;;;18.71;56.47;97516.77;103898;1280;74997;-42
2023/10/29 05:30:34;;;;;;;0.80;0.70;;;;;;;18.71;56.49;97520.88;103721;1280;65869;-42
2023/10/29 05:33:02;;;;;;;0.70;0.70;;;;;;;18.70;56.44;97521.72;103757;1277;72469;-43
2023/10/29 05:35:29;;;;;;;1.20;0.60;;;;;;;18.71;56.50;97525.84;104152;1280;61288;-42
2023/10/29 05:37:55;;;;;;;0.50;0.50;;;;;;;18.70;56.39;97526.98;103772;1278;61457;-43
2023/10/29 05:40:22;;;;;;;0.70;0.60;;;;;;;18.70;56.39;97528.06;104240;1276;74059;-42
2023/10/29 05:42:49;;;;;;;0.60;0.50;;;;;;;18.71;56.38;97532.65;103814;1281;65482;-42
2023/10/29 05:45:16;;;;;;;0.80;0.60;;;;;;;18.71;56.34;97539.48;103853;1277;72661;-43
2023/10/29 05:47:43;;;;;;;0.70;0.70;;;;;;;18.71;56.36;97546.45;103712;1280;61135;-43
2023/10/29 05:50:10;;;;;;;0.60;0.60;;;;;;;18.70;56.43;97554.42;103734;1277;61451;-43
2023/10/29 05:52:36;;;;;;;0.80;0.60;;;;;;;18.70;56.35;97555.11;103889;1282;75096;-42
2023/10/29 05:55:04;;;;;;;0.80;0.60;;;;;;;18.70;56.38;97560.38;103769;1280;65896;-42
2023/10/29 05:57:30;;;;;;;0.60;0.50;;;;;;;18.69;56.36;97565.73;103795;1280;71950;-42
2023/10/29 05:59:57;;;;;;;0.80;0.50;;;;;;;18.69;56.38;97564.63;103713;1290;62047;-41
2023/10/29 06:02:24;;;;;;;0.50;0.50;;;;;;;18.69;56.33;97568.82;103750;1280;61374;-41
2023/10/29 06:04:50;;;;;;;1.00;0.60;;;;;;;18.70;56.36;97565.80;103788;1280;74416;-41
2023/10/29 06:07:18;;;;;;;0.60;0.60;;;;;;;18.69;56.34;97567.48;103908;1281;65436;-43
2023/10/29 06:09:45;;;;;;;0.70;0.60;;;;;;;18.69;56.34;97572.14;103767;1281;72519;-41
2023/10/29 06:12:11;;;;;;;0.70;0.70;;;;;;;18.68;56.40;97570.33;103738;1281;61276;-42
2023/10/29 06:14:38;;;;;;;0.60;0.60;;;;;;;18.68;56.29;97570.56;103781;1280;61275;-42
2023/10/29 06:17:05;;;;;;;0.60;0.60;;;;;;;18.68;56.41;97571.26;103719;1278;74648;-41
2023/10/29 06:19:49;;;;;;;0.80;0.60;;;;;;;18.68;56.43;97572.65;103777;1280;63974;-43
2023/10/29 06:22:16;;;;;;;1.00;0.60;;;;;;;18.68;56.34;97575.66;103790;1277;72797;-42
2023/10/29 06:24:42;;;;;;;0.50;0.50;;;;;;;18.68;56.28;97575.67;103919;1282;61372;-42
2023/10/29 06:27:09;;;;;;;1.00;0.60;;;;;;;18.68;56.33;97575.52;103860;1280;61300;-42
2023/10/29 06:29:38;;;;;;;1.30;0.60;;;;;;;18.68;56.35;97580.88;103757;1289;74474;-41
2023/10/29 06:32:05;;;;;;;0.60;0.60;;;;;;;18.68;56.41;97587.05;103810;1280;67363;-43
2023/10/29 06:34:32;;;;;;;0.70;0.70;;;;;;;18.68;56.36;97584.73;103792;1280;72553;-41
2023/10/29 06:36:59;;;;;;;1.70;0.70;;;;;;;18.68;56.34;97586.84;103750;1280;61297;-41
2023/10/29 06:39:25;;;;;;;0.80;0.70;;;;;;;18.68;56.35;97590.71;103775;1277;61321;-41
2023/10/29 06:41:52;;;;;;;1.30;0.60;;;;;;;18.68;56.35;97591.49;103737;1279;74419;-42
2023/10/29 06:44:19;;;;;;;1.70;0.80;;;;;;;18.68;56.27;97592.02;103920;1291;65769;-42
2023/10/29 06:46:45;;;;;;;1.20;0.70;;;;;;;18.68;56.30;97593.65;103773;1277;72407;-42
2023/10/29 06:49:12;;;;;;;0.60;0.60;;;;;;;18.67;56.33;97597.29;103806;1289;61379;-41
2023/10/29 06:51:38;;;;;;;1.30;0.70;;;;;;;18.68;56.31;97602.10;103797;1277;61387;-42
2023/10/29 06:54:05;;;;;;;0.60;0.60;;;;;;;18.68;56.32;97600.63;103738;1278;74798;-43
2023/10/29 06:56:32;;;;;;;2.50;0.90;;;;;;;18.67;56.35;97602.40;103889;1280;65326;-43
2023/10/29 06:58:59;;;;;;;0.80;0.60;;;;;;;18.68;56.31;97607.29;103751;1281;73163;-43
2023/10/29 07:01:25;;;;;;;0.60;0.60;;;;;;;18.67;56.36;97602.95;103827;1291;61313;-42
2023/10/29 07:03:52;;;;;;;0.70;0.70;;;;;;;18.67;56.26;97605.83;103748;1280;61377;-42
2023/10/29 07:06:19;;;;;;;1.40;0.80;;;;;;;18.67;56.35;97605.59;103884;1280;73679;-42
2023/10/29 07:08:47;;;;;;;0.70;0.70;;;;;;;18.67;56.33;97612.48;103743;1281;65789;-42
2023/10/29 07:11:14;;;;;;;0.60;0.60;;;;;;;18.68;56.26;97621.48;103775;1276;72563;-42
2023/10/29 07:13:41;;;;;;;0.70;0.60;;;;;;;18.68;56.42;97619.39;103421;1283;61404;-43
2023/10/29 07:16:09;;;;;;;0.90;0.70;;;;;;;18.68;56.27;97618.52;103882;1278;61451;-42
2023/10/29 07:18:36;;;;;;;1.30;0.70;;;;;;;18.68;56.22;97616.59;103988;1277;74406;-41
2023/10/29 07:21:04;;;;;;;0.90;0.60;;;;;;;18.68;56.26;97622.27;103853;1280;65428;-42
2023/10/29 07:23:31;;;;;;;0.70;0.70;;;;;;;18.68;56.26;97627.44;103952;1284;72362;-42
2023/10/29 07:25:58;;;;;;;0.60;0.60;;;;;;;18.68;56.36;97631.17;103878;1282;61272;-41
2023/10/29 07:28:25;;;;;;;1.00;0.80;;;;;;;18.68;56.32;97631.41;103809;1284;62194;-42
2023/10/29 07:30:52;;;;;;;1.10;0.70;;;;;;;18.68;56.26;97631.63;103856;1290;75187;-42
2023/10/29 07:33:18;;;;;;;0.70;0.70;;;;;;;18.68;56.29;97636.46;103836;1282;65991;-43
2023/10/29 07:35:46;;;;;;;0.90;0.80;;;;;;;18.68;56.31;97638.09;103830;1277;72626;-42
2023/10/29 07:38:12;;;;;;;0.90;0.80;;;;;;;18.69;56.22;97640.25;103749;1280;62056;-42
2023/10/29 07:40:39;;;;;;;0.80;0.70;;;;;;;18.68;56.33;97647.52;103757;1280;62128;-42
2023/10/29 07:43:06;;;;;;;0.90;0.70;;;;;;;18.68;56.26;97641.73;103774;1277;75362;-42
2023/10/29 07:45:32;;;;;;;1.20;0.90;;;;;;;18.68;56.28;97640.63;103694;1277;65715;-41
2023/10/29 07:47:59;;;;;;;0.70;0.70;;;;;;;18.69;56.22;97641.82;103822;1276;72444;-41
2023/10/29 07:50:26;;;;;;;0.80;0.80;;;;;;;18.69;56.26;97645.00;104242;1291;62094;-44
2023/10/29 07:52:53;;;;;;;1.00;0.70;;;;;;;18.70;56.21;97644.55;106755;1276;61047;-43
2023/10/29 07:55:20;;;;;;;1.60;0.90;;;;;;;18.70;56.20;97644.94;107254;1276;75284;-42
2023/10/29 07:57:46;;;;;;;0.60;0.60;;;;;;;18.71;56.20;97648.85;107151;1280;63887;-42
2023/10/29 08:00:13;;;;;;;1.20;0.90;;;;;;;18.73;56.17;97649.11;104148;1277;70379;-39
2023/10/29 08:02:41;;;;;;;1.50;0.70;;;;;;;18.73;56.18;97649.04;104056;1285;61960;-42
2023/10/29 08:05:10;;;;;;;1.10;0.90;;;;;;;18.74;56.12;97651.48;103940;1283;62132;-42
2023/10/29 08:07:38;;;;;;;0.70;0.70;;;;;;;18.74;56.10;97650.16;103995;1284;75151;-41
2023/10/29 08:10:05;;;;;;;1.40;0.80;;;;;;;18.74;56.04;97653.73;104436;1280;66478;-41
2023/10/29 08:12:34;;;;;;;0.70;0.70;;;;;;;18.75;56.10;97658.94;103805;1276;72607;-40
2023/10/29 08:15:00;;;;;;;1.20;0.70;;;;;;;18.75;56.10;97662.48;103973;1283;62064;-42
2023/10/29 08:17:29;;;;;;;0.60;0.60;;;;;;;18.74;56.04;97663.27;103906;1276;62222;-41
2023/10/29 08:19:56;;;;;;;1.60;0.70;;;;;;;18.75;56.07;97674.83;103783;1280;75299;-43
2023/10/29 08:22:22;;;;;;;0.70;0.70;;;;;;;18.75;56.12;97673.66;103858;1277;66558;-42
2023/10/29 08:24:50;;;;;;;0.80;0.80;;;;;;;18.75;56.09;97678.24;103820;1284;62302;-42
2023/10/29 08:27:17;;;;;;;0.70;0.70;;;;;;;18.75;56.08;97679.63;103905;1280;62209;-41
2023/10/29 08:29:45;;;;;;;0.90;0.70;;;;;;;18.75;55.98;97678.06;103786;1276;62108;-42
2023/10/29 08:32:12;;;;;;;1.20;0.80;;;;;;;18.75;56.07;97683.65;103907;1280;75229;-40
2023/10/29 08:34:39;;;;;;;0.70;0.70;;;;;;;18.74;56.08;97687.98;103908;1280;66720;-43
2023/10/29 08:37:06;;;;;;;1.30;1.00;;;;;;;18.74;56.11;97689.61;103845;1283;72360;-42
2023/10/29 08:39:33;;;;;;;0.80;0.70;;;;;;;18.74;56.13;97690.63;103898;1280;62654;-43
2023/10/29 08:42:02;;;;;;;1.20;0.70;;;;;;;18.74;56.01;97691.00;103840;1282;62081;-42
2023/10/29 08:44:29;;;;;;;0.70;0.70;;;;;;;18.75;56.02;97694.35;103761;1278;75279;-42
2023/10/29 08:46:56;;;;;;;1.20;0.70;;;;;;;18.75;56.05;97696.67;103810;1282;65587;-41
2023/10/29 08:49:23;;;;;;;1.00;0.70;;;;;;;18.75;56.06;97692.95;103730;1276;72418;-42
2023/10/29 08:51:50;;;;;;;1.10;0.90;;;;;;;18.75;56.15;97700.02;103610;1280;173265;-42
2023/10/29 08:54:17;;;;;;;1.60;0.70;;;;;;;18.75;56.06;97697.45;103733;1280;62194;-41
2023/10/29 08:56:44;;;;;;;0.90;0.90;;;;;;;18.75;56.09;97695.90;103865;1280;75235;-42
2023/10/29 08:59:13;;;;;;;0.90;0.90;;;;;;;18.75;56.00;97694.90;103743;1281;65932;-42
2023/10/29 09:01:40;;;;;;;0.50;0.50;;;;;;;18.76;56.05;97686.86;103726;1289;73083;-41
2023/10/29 09:04:08;;;;;;;0.70;0.70;;;;;;;18.76;56.07;97688.65;103881;1280;62114;-41
2023/10/29 09:06:37;;;;;;;0.70;0.60;;;;;;;18.76;56.03;97689.82;103919;1277;62183;-42
2023/10/29 09:09:04;;;;;;;1.50;0.80;;;;;;;18.77;56.02;97687.73;103912;1280;75127;-42
2023/10/29 09:11:31;;;;;;;1.00;0.80;;;;;;;18.77;55.92;97685.57;103846;1278;66082;-42
2023/10/29 09:13:58;;;;;;;0.70;0.70;;;;;;;18.77;55.89;97682.78;103936;1277;72827;-42
2023/10/29 09:16:25;;;;;;;1.00;0.70;;;;;;;18.77;56.02;97684.80;103862;1280;62085;-43
2023/10/29 09:18:52;;;;;;;1.90;0.90;;;;;;;18.78;56.04;97686.21;103823;1280;62187;-42
2023/10/29 09:21:19;;;;;;;1.10;0.70;;;;;;;18.77;55.95;97677.76;103813;1280;75443;-42
2023/10/29 09:23:46;;;;;;;0.80;0.80;;;;;;;18.78;56.03;97677.68;103814;1277;66058;-41
2023/10/29 09:26:12;;;;;;;0.90;0.70;;;;;;;18.78;55.97;97679.02;103969;1277;72447;-42
2023/10/29 09:28:42;;;;;;;0.80;0.80;;;;;;;18.78;55.94;97678.48;103801;1280;62107;-42
2023/10/29 09:31:17;;;;;;;0.70;0.70;;;;;;;18.79;55.92;97681.27;103827;1278;62202;-41
2023/10/29 09:33:44;;;;;;;;;;;;;;;18.79;55.98;97674.39;103723;1280;75335;-42
2023/10/29 09:36:13;;;;;;;0.70;0.70;;;;;;;18.79;55.95;97672.66;103769;1280;65938;-43
2023/10/29 09:38:41;;;;;;;0.80;0.80;;;;;;;18.78;56.05;97668.45;103751;1284;72460;-42
2023/10/29 09:41:07;;;;;;;0.70;0.70;;;;;;;18.79;55.99;97666.85;103927;1278;62113;-41
2023/10/29 09:43:40;;;;;;;0.80;0.80;;;;;;;18.79;55.93;97662.23;103945;1278;62180;-43
2023/10/29 09:46:06;;;;;;;1.70;0.90;;;;;;;18.79;55.98;97663.39;103825;1280;75461;-42
2023/10/29 09:48:33;;;;;;;0.90;0.90;;;;;;;18.79;55.97;97660.67;103987;1280;66020;-42
2023/10/29 09:51:00;;;;;;;0.70;0.70;;;;;;;18.80;55.94;97662.16;103815;1276;72616;-42
2023/10/29 09:53:27;;;;;;;1.00;0.70;;;;;;;18.81;56.00;97663.27;103741;1277;62085;-42
2023/10/29 09:55:54;;;;;;;0.80;0.80;;;;;;;18.81;55.88;97661.63;103904;1277;62161;-42
2023/10/29 09:58:23;;;;;;;0.70;0.70;;;;;;;18.81;55.81;97660.25;103918;1276;75124;-42
2023/10/29 10:00:50;;;;;;;1.20;1.10;;;;;;;18.82;55.82;97661.96;104017;1280;66131;-42
2023/10/29 10:03:17;;;;;;;0.60;0.60;;;;;;;18.82;55.88;97658.55;103745;1277;72458;-43
2023/10/29 10:05:45;;;;;;;0.90;0.90;;;;;;;18.82;55.93;97655.23;103888;1283;62200;-41
2023/10/29 10:08:12;;;;;;;0.70;0.70;;;;;;;18.82;55.86;97646.46;103769;1276;62109;-42
2023/10/29 10:10:41;;;;;;;0.80;0.80;;;;;;;18.82;55.85;97643.85;104124;1280;75266;-42
2023/10/29 10:13:08;;;;;;;1.20;1.00;;;;;;;18.82;55.86;97646.09;103928;1276;66099;-41
2023/10/29 10:15:38;;;;;;;1.00;0.80;;;;;;;18.83;55.83;97646.11;103972;1280;72636;-42
2023/10/29 10:18:05;;;;;;;1.00;0.80;;;;;;;18.83;55.85;97640.45;103720;1280;62121;-42
2023/10/29 10:20:35;;;;;;;0.90;0.80;;;;;;;18.83;55.90;97641.46;104045;1278;62100;-42
2023/10/29 10:23:08;;;;;;;0.80;0.80;;;;;;;18.83;55.76;97641.54;103826;1280;75329;-42
2023/10/29 10:25:35;;;;;;;0.90;0.70;;;;;;;18.84;55.82;97644.03;104026;1276;66299;-42
2023/10/29 10:28:02;;;;;;;0.70;0.70;;;;;;;18.85;55.82;97645.68;104053;1277;72505;-41
2023/10/29 10:30:30;;;;;;;0.70;0.60;;;;;;;18.84;55.84;97641.64;105074;1276;62071;-43
2023/10/29 10:33:18;;;;;;;0.80;0.70;;;;;;;18.85;55.75;97635.59;107333;1276;59528;-44
2023/10/29 10:35:51;;;;;;;1.20;0.80;;;;;;;18.85;55.85;97637.70;107779;1276;74256;-44
2023/10/29 10:38:22;;;;;;;0.80;0.80;;;;;;;18.86;55.80;97640.52;105640;1276;65042;-41
2023/10/29 10:40:58;;;;;;;1.00;0.90;;;;;;;18.87;55.72;97643.42;103858;1277;72493;-42
2023/10/29 10:43:26;;;;;;;0.80;0.60;;;;;;;18.89;55.74;97639.88;103778;1283;62085;-41
2023/10/29 10:45:53;;;;;;;1.00;0.90;;;;;;;18.89;55.70;97640.66;103983;1276;62100;-41
2023/10/29 10:48:19;;;;;;;0.70;0.70;;;;;;;18.90;55.66;97636.66;103926;1280;75490;-43
2023/10/29 10:50:47;;;;;;;0.90;0.80;;;;;;;18.91;55.71;97642.34;103573;1282;65252;-42
2023/10/29 10:53:13;;;;;;;0.50;0.50;;;;;;;18.91;55.66;97634.20;103911;1281;72661;-42
2023/10/29 10:55:40;;;;;;;0.80;0.80;;;;;;;18.91;55.63;97638.46;103940;1280;62165;-42
2023/10/29 10:58:27;;;;;;;1.10;0.80;;;;;;;18.91;55.67;97636.20;103767;1278;62292;-42
2023/10/29 11:00:54;;;;;;;0.70;0.70;;;;;;;18.92;55.63;97639.80;103917;1277;75240;-42
2023/10/29 11:03:20;;;;;;;1.00;0.70;;;;;;;18.91;55.58;97633.50;103786;1276;66287;-41
2023/10/29 11:05:59;;;;;;;0.70;0.70;;;;;;;18.92;55.61;97633.91;103765;1277;72532;-43
2023/10/29 11:08:26;;;;;;;0.80;0.80;;;;;;;18.92;55.68;97633.36;103700;1283;62126;-42
2023/10/29 11:10:54;;;;;;;0.90;0.70;;;;;;;18.92;55.66;97631.29;103896;1280;62084;-42
2023/10/29 11:13:20;;;;;;;0.70;0.70;;;;;;;18.92;55.72;97629.59;103707;1282;75321;-42
2023/10/29 11:15:47;;;;;;;0.50;0.50;;;;;;;18.93;55.54;97632.55;103824;1280;66000;-42
2023/10/29 11:18:14;;;;;;;0.90;0.80;;;;;;;18.93;55.60;97633.27;103823;1277;72658;-42
2023/10/29 11:20:41;;;;;;;0.90;0.80;;;;;;;18.94;55.65;97634.76;103900;1280;62073;-42
2023/10/29 11:23:09;;;;;;;0.70;0.70;;;;;;;18.95;55.57;97638.26;103775;1276;62166;-41
2023/10/29 11:25:39;;;;;;;0.80;0.60;;;;;;;18.95;55.59;97632.28;103773;1280;75549;-42